Time;durP1;ratioP1;P1;durP2;ratioP2;P2;SDS_P1;SDS_P2;PMS_P1;PMS_P2;Temp;Humidity;BMP_temperature;BMP_pressure;BME280_temperature;BME280_humidity;BME280_pressure;Samples;Min_cycle;Max_cycle;Signal;HPM_P1;HPM_P2
2022/06/22 00:02:26;;;;;;;3.38;0.90;;;;;;;;;;5103260;27;19926;-61
2022/06/22 00:04:59;;;;;;;4.00;0.93;;;;;;;;;;5103844;28;20058;-61
2022/06/22 00:07:26;;;;;;;;;;;;;;;;;;5104941;27;20077;-62
2022/06/22 00:09:56;;;;;;;4.47;1.10;;;;;;;;;;5105572;28;20012;-62
2022/06/22 00:12:28;;;;;;;4.75;1.08;;;;;;;;;;5106343;28;20142;-62
2022/06/22 00:14:57;;;;;;;2.85;0.88;;;;;;;;;;5093737;28;20044;-62
2022/06/22 00:17:31;;;;;;;3.13;0.90;;;;;;;;;;5086662;28;20039;-63
2022/06/22 00:19:59;;;;;;;2.47;0.90;;;;;;;;;;5082260;28;20055;-63
2022/06/22 00:22:26;;;;;;;3.63;1.00;;;;;;;;;;5102084;27;20126;-63
2022/06/22 00:25:01;;;;;;;2.88;1.13;;;;;;;;;;5111953;27;20038;-63
2022/06/22 00:27:30;;;;;;;3.03;0.90;;;;;;;;;;5101866;27;20056;-63
2022/06/22 00:30:20;;;;;;;3.05;0.80;;;;;;;;;;5104285;27;20055;-61
2022/06/22 00:33:19;;;;;;;3.20;0.93;;;;;;;;;;5094380;27;20043;-63
2022/06/22 00:36:04;;;;;;;3.20;1.10;;;;;;;;;;5074563;27;20176;-61
2022/06/22 00:38:32;;;;;;;3.20;0.95;;;;;;;;;;5101700;27;20880;-61
2022/06/22 00:41:04;;;;;;;5.78;1.00;;;;;;;;;;5103335;27;20071;-62
2022/06/22 00:43:32;;;;;;;3.13;1.05;;;;;;;;;;5103734;28;20051;-61
2022/06/22 00:46:00;;;;;;;2.80;0.90;;;;;;;;;;5107673;27;20035;-61
2022/06/22 00:48:30;;;;;;;2.63;0.80;;;;;;;;;;5108377;27;20429;-62
2022/06/22 00:51:00;;;;;;;5.72;1.35;;;;;;;;;;5110185;27;20047;-63
2022/06/22 00:53:32;;;;;;;4.10;1.13;;;;;;;;;;5107900;27;20510;-63
2022/06/22 00:56:15;;;;;;;3.85;1.90;;;;;;;;;;5108888;27;21761;-62
2022/06/22 00:58:54;;;;;;;8.75;2.28;;;;;;;;;;5107661;27;20059;-63
2022/06/22 01:01:27;;;;;;;5.00;1.85;;;;;;;;;;5106683;27;20056;-63
2022/06/22 01:04:06;;;;;;;3.22;1.27;;;;;;;;;;5107925;27;20089;-63
2022/06/22 01:06:33;;;;;;;2.60;0.90;;;;;;;;;;5109933;27;20120;-62
2022/06/22 01:09:03;;;;;;;2.60;0.90;;;;;;;;;;5107393;27;20032;-63
2022/06/22 01:14:29;;;;;;;2.37;0.77;;;;;;;;;;5107225;27;20097;-63
2022/06/22 01:16:57;;;;;;;4.18;1.17;;;;;;;;;;5107146;27;20575;-63
2022/06/22 01:19:34;;;;;;;5.22;1.20;;;;;;;;;;5110392;27;20658;-63
2022/06/22 01:22:12;;;;;;;2.55;0.85;;;;;;;;;;5105707;27;20043;-64
2022/06/22 01:24:48;;;;;;;5.43;1.73;;;;;;;;;;5106574;27;20090;-63
2022/06/22 01:27:31;;;;;;;4.13;0.77;;;;;;;;;;5106989;27;20039;-64
2022/06/22 01:30:00;;;;;;;4.53;1.10;;;;;;;;;;5120800;27;20525;-64
2022/06/22 01:32:31;;;;;;;3.58;0.98;;;;;;;;;;5126385;27;20051;-64
2022/06/22 01:35:00;;;;;;;4.55;1.02;;;;;;;;;;5127970;27;20440;-68
2022/06/22 01:37:31;;;;;;;4.35;1.10;;;;;;;;;;5124903;27;20101;-68
2022/06/22 01:40:33;;;;;;;2.90;1.10;;;;;;;;;;5128546;27;20050;-63
2022/06/22 01:43:02;;;;;;;2.92;0.93;;;;;;;;;;5020454;28;20530;-63
2022/06/22 01:45:34;;;;;;;2.35;0.93;;;;;;;;;;5105315;27;20107;-66
2022/06/22 01:48:07;;;;;;;3.45;0.95;;;;;;;;;;5125252;27;20034;-65
2022/06/22 01:50:41;;;;;;;6.13;0.80;;;;;;;;;;5105919;27;20063;-63
2022/06/22 01:53:24;;;;;;;3.50;0.88;;;;;;;;;;5125598;27;20089;-64
2022/06/22 01:55:54;;;;;;;2.90;1.02;;;;;;;;;;5107593;27;20042;-64
2022/06/22 01:58:21;;;;;;;2.97;1.00;;;;;;;;;;5126768;27;20037;-65
2022/06/22 02:00:51;;;;;;;2.90;1.00;;;;;;;;;;5127804;27;20088;-65
2022/06/22 02:03:20;;;;;;;2.33;0.82;;;;;;;;;;5125161;27;20066;-65
2022/06/22 02:05:49;;;;;;;2.40;0.82;;;;;;;;;;5126254;27;20047;-65
2022/06/22 02:08:22;;;;;;;2.75;0.90;;;;;;;;;;5126718;27;20123;-63
2022/06/22 02:10:52;;;;;;;2.45;0.82;;;;;;;;;;5127805;27;20070;-63
2022/06/22 02:13:28;;;;;;;2.33;0.90;;;;;;;;;;5127013;27;20126;-65
2022/06/22 02:15:57;;;;;;;2.58;0.90;;;;;;;;;;5105215;27;20438;-65
2022/06/22 02:18:39;;;;;;;2.40;0.70;;;;;;;;;;5116908;27;21131;-65
2022/06/22 02:21:32;;;;;;;3.28;0.90;;;;;;;;;;5125610;27;20047;-66
2022/06/22 02:24:08;;;;;;;3.22;0.98;;;;;;;;;;5113951;27;20044;-61
2022/06/22 02:26:34;;;;;;;2.58;1.00;;;;;;;;;;5124355;27;20179;-64
2022/06/22 02:29:01;;;;;;;2.97;0.90;;;;;;;;;;5125837;27;20466;-63
2022/06/22 02:31:28;;;;;;;2.72;0.80;;;;;;;;;;5103744;27;20411;-66
2022/06/22 02:33:56;;;;;;;3.00;1.00;;;;;;;;;;5125594;27;20476;-64
2022/06/22 02:36:24;;;;;;;2.92;0.90;;;;;;;;;;5106442;27;20035;-66
2022/06/22 02:38:52;;;;;;;2.83;0.90;;;;;;;;;;5126973;27;20721;-65
2022/06/22 02:46:55;;;;;;;5.32;0.98;;;;;;;;;;5117400;27;20042;-64
2022/06/22 02:49:24;;;;;;;2.55;0.77;;;;;;;;;;5123968;27;20047;-64
2022/06/22 02:51:51;;;;;;;3.20;0.95;;;;;;;;;;5124033;27;20612;-68
2022/06/22 02:54:21;;;;;;;4.00;0.88;;;;;;;;;;5123374;27;20053;-63
2022/06/22 02:56:52;;;;;;;2.85;0.90;;;;;;;;;;5123026;27;20046;-63
2022/06/22 02:59:19;;;;;;;2.33;0.80;;;;;;;;;;5123629;27;20086;-59
2022/06/22 03:01:46;;;;;;;2.63;0.90;;;;;;;;;;5113225;27;20092;-62
2022/06/22 03:04:14;;;;;;;2.72;0.80;;;;;;;;;;5122572;27;21360;-62
2022/06/22 03:06:47;;;;;;;2.47;0.80;;;;;;;;;;5123196;27;20043;-61
2022/06/22 03:09:13;;;;;;;3.53;0.82;;;;;;;;;;5124293;27;20050;-63
2022/06/22 03:11:42;;;;;;;2.80;0.98;;;;;;;;;;5122875;27;21542;-61
2022/06/22 03:14:17;;;;;;;3.05;1.00;;;;;;;;;;5123786;27;20043;-63
2022/06/22 03:16:45;;;;;;;2.78;1.00;;;;;;;;;;5122154;27;20067;-64
2022/06/22 03:19:19;;;;;;;3.70;1.08;;;;;;;;;;5125997;27;20035;-66
2022/06/22 03:21:46;;;;;;;3.13;1.08;;;;;;;;;;5122677;27;20343;-66
2022/06/22 03:24:16;;;;;;;3.00;1.10;;;;;;;;;;5126070;27;20043;-66
2022/06/22 03:26:45;;;;;;;5.75;1.08;;;;;;;;;;5124045;27;20068;-66
2022/06/22 03:29:30;;;;;;;2.75;0.93;;;;;;;;;;5107783;27;20078;-66
2022/06/22 03:32:17;;;;;;;6.50;1.10;;;;;;;;;;5116662;27;20389;-65
2022/06/22 03:34:52;;;;;;;3.10;1.00;;;;;;;;;;5122206;27;20039;-66
2022/06/22 03:37:21;;;;;;;3.40;1.02;;;;;;;;;;5124467;27;20875;-63
2022/06/22 03:39:50;;;;;;;2.47;0.80;;;;;;;;;;5123549;27;20133;-64
2022/06/22 03:42:26;;;;;;;2.67;0.93;;;;;;;;;;5123095;27;20506;-65
2022/06/22 03:44:59;;;;;;;3.22;1.00;;;;;;;;;;5117464;27;20077;-64
2022/06/22 03:47:29;;;;;;;2.83;0.93;;;;;;;;;;5123738;27;20046;-61
2022/06/22 03:49:56;;;;;;;2.53;0.85;;;;;;;;;;5124888;27;20088;-61
2022/06/22 03:52:31;;;;;;;2.55;0.95;;;;;;;;;;5123233;27;20100;-60
2022/06/22 03:55:08;;;;;;;2.70;0.90;;;;;;;;;;5123215;27;21714;-60
2022/06/22 03:57:40;;;;;;;5.78;1.48;;;;;;;;;;5123082;27;20058;-66
2022/06/22 04:00:08;;;;;;;3.85;1.17;;;;;;;;;;5122349;27;20046;-65
2022/06/22 04:02:35;;;;;;;3.95;0.90;;;;;;;;;;5121384;27;20398;-63
2022/06/22 04:05:03;;;;;;;3.00;1.00;;;;;;;;;;5124045;27;20042;-64
2022/06/22 04:07:33;;;;;;;3.53;1.20;;;;;;;;;;5123057;27;20612;-64
2022/06/22 04:09:59;;;;;;;4.03;1.17;;;;;;;;;;5122350;27;20114;-63
2022/06/22 04:12:30;;;;;;;3.20;1.00;;;;;;;;;;5119756;27;20053;-63
2022/06/22 04:15:05;;;;;;;3.03;1.10;;;;;;;;;;5121693;27;20037;-63
2022/06/22 04:17:37;;;;;;;3.28;1.10;;;;;;;;;;5122866;27;20067;-63
2022/06/22 04:20:21;;;;;;;3.78;1.20;;;;;;;;;;5125224;27;20387;-63
2022/06/22 04:22:50;;;;;;;3.15;1.10;;;;;;;;;;5114042;27;20050;-64
2022/06/22 04:25:26;;;;;;;3.83;1.23;;;;;;;;;;5106917;27;20511;-63
2022/06/22 04:27:53;;;;;;;2.92;1.15;;;;;;;;;;5105313;27;20044;-65
2022/06/22 04:30:28;;;;;;;4.15;1.30;;;;;;;;;;5106642;27;20101;-63
2022/06/22 04:33:10;;;;;;;2.92;1.05;;;;;;;;;;5112179;27;20074;-63
2022/06/22 04:35:58;;;;;;;3.92;1.10;;;;;;;;;;5104693;27;20130;-63
2022/06/22 04:38:31;;;;;;;2.72;1.00;;;;;;;;;;5106451;27;20073;-64
2022/06/22 04:41:07;;;;;;;3.95;1.23;;;;;;;;;;5104461;27;20390;-64
2022/06/22 04:43:36;;;;;;;3.60;1.20;;;;;;;;;;5105965;27;20440;-64
2022/06/22 04:46:03;;;;;;;4.50;1.25;;;;;;;;;;5106980;27;20051;-63
2022/06/22 04:48:31;;;;;;;4.70;1.30;;;;;;;;;;5106784;27;20065;-64
2022/06/22 04:51:02;;;;;;;6.22;1.25;;;;;;;;;;5105674;27;20115;-64
2022/06/22 04:53:44;;;;;;;4.85;1.27;;;;;;;;;;5108652;27;20035;-64
2022/06/22 04:56:13;;;;;;;4.28;1.17;;;;;;;;;;5111331;27;20058;-63
2022/06/22 04:58:45;;;;;;;3.10;1.10;;;;;;;;;;5105660;27;21244;-63
2022/06/22 05:01:18;;;;;;;3.13;1.00;;;;;;;;;;5104471;27;20119;-64
2022/06/22 05:03:45;;;;;;;3.28;1.20;;;;;;;;;;5114096;27;20043;-64
2022/06/22 05:06:21;;;;;;;2.70;0.80;;;;;;;;;;5106194;27;20035;-63
2022/06/22 05:09:07;;;;;;;3.00;1.13;;;;;;;;;;5104699;27;20037;-63
2022/06/22 05:11:40;;;;;;;8.70;1.50;;;;;;;;;;5104878;27;20047;-63
2022/06/22 05:14:12;;;;;;;3.00;1.20;;;;;;;;;;5104868;27;20036;-63
2022/06/22 05:16:39;;;;;;;3.72;1.27;;;;;;;;;;5103603;27;20039;-63
2022/06/22 05:19:06;;;;;;;3.20;1.08;;;;;;;;;;5104080;27;20135;-64
2022/06/22 05:21:45;;;;;;;3.10;1.08;;;;;;;;;;5104535;27;20173;-62
2022/06/22 05:24:26;;;;;;;3.10;1.15;;;;;;;;;;5105413;27;20411;-62
2022/06/22 05:26:55;;;;;;;2.88;1.10;;;;;;;;;;5110980;27;20146;-62
2022/06/22 05:29:27;;;;;;;4.88;1.17;;;;;;;;;;5104657;27;20046;-62
2022/06/22 05:31:57;;;;;;;3.55;1.15;;;;;;;;;;5102803;27;20060;-62
2022/06/22 05:34:26;;;;;;;3.08;1.02;;;;;;;;;;5105735;27;20043;-63
2022/06/22 05:37:00;;;;;;;3.40;1.25;;;;;;;;;;5113210;27;20101;-62
2022/06/22 05:39:26;;;;;;;3.13;1.13;;;;;;;;;;5105211;27;20077;-62
2022/06/22 05:41:53;;;;;;;3.60;1.35;;;;;;;;;;5104035;27;20080;-62
2022/06/22 05:44:21;;;;;;;4.28;1.30;;;;;;;;;;5103971;27;20046;-64
2022/06/22 05:46:56;;;;;;;4.95;1.08;;;;;;;;;;5106129;27;20188;-64
2022/06/22 05:49:25;;;;;;;3.83;1.13;;;;;;;;;;5102030;27;20055;-69
2022/06/22 05:52:10;;;;;;;4.68;1.27;;;;;;;;;;5105542;27;20047;-69
2022/06/22 05:54:45;;;;;;;6.85;1.52;;;;;;;;;;5105896;27;20047;-68
2022/06/22 05:57:11;;;;;;;7.82;1.30;;;;;;;;;;5109143;27;20051;-67
2022/06/22 05:59:45;;;;;;;3.20;1.20;;;;;;;;;;5109824;27;20028;-66
2022/06/22 06:02:12;;;;;;;3.63;1.27;;;;;;;;;;5127178;27;20031;-68
2022/06/22 06:04:45;;;;;;;3.50;1.30;;;;;;;;;;5123631;27;20430;-66
2022/06/22 06:07:27;;;;;;;3.33;1.15;;;;;;;;;;5125530;27;20054;-66
2022/06/22 06:09:54;;;;;;;3.83;1.40;;;;;;;;;;5114344;27;20119;-67
2022/06/22 06:12:35;;;;;;;3.53;1.10;;;;;;;;;;5106162;27;20400;-67
2022/06/22 06:15:04;;;;;;;8.35;1.48;;;;;;;;;;5114707;27;20478;-67
2022/06/22 06:17:30;;;;;;;4.50;1.60;;;;;;;;;;5106505;27;20031;-67
2022/06/22 06:19:59;;;;;;;3.88;1.70;;;;;;;;;;5108878;27;20095;-67
2022/06/22 06:22:30;;;;;;;3.13;1.20;;;;;;;;;;5109175;27;20069;-67
2022/06/22 06:27:50;;;;;;;3.50;1.42;;;;;;;;;;5105307;27;20045;-67
2022/06/22 06:30:19;;;;;;;3.65;1.33;;;;;;;;;;5108131;27;20035;-68
2022/06/22 06:32:55;;;;;;;3.55;1.30;;;;;;;;;;5105703;27;20073;-68
2022/06/22 06:35:22;;;;;;;3.95;1.30;;;;;;;;;;5108916;27;20061;-67
2022/06/22 06:38:00;;;;;;;3.88;1.38;;;;;;;;;;5126477;27;20031;-67
2022/06/22 06:40:38;;;;;;;4.15;1.48;;;;;;;;;;5127603;27;20039;-67
2022/06/22 06:43:14;;;;;;;4.32;1.48;;;;;;;;;;5108204;27;20039;-68
2022/06/22 06:45:42;;;;;;;3.60;1.48;;;;;;;;;;5128415;27;20089;-68
2022/06/22 06:48:13;;;;;;;5.35;1.55;;;;;;;;;;5128178;27;20043;-68
2022/06/22 06:50:41;;;;;;;4.00;1.80;;;;;;;;;;5126680;27;20469;-68
2022/06/22 06:53:14;;;;;;;4.78;1.48;;;;;;;;;;5129269;27;20527;-69
2022/06/22 06:55:43;;;;;;;5.25;1.75;;;;;;;;;;5130462;27;20119;-68
2022/06/22 06:58:16;;;;;;;4.13;1.70;;;;;;;;;;5131621;27;20071;-68
2022/06/22 07:00:44;;;;;;;3.35;1.35;;;;;;;;;;5109658;27;20039;-68
2022/06/22 07:03:19;;;;;;;4.55;1.50;;;;;;;;;;5127326;27;20039;-68
2022/06/22 07:05:46;;;;;;;3.60;1.40;;;;;;;;;;5129586;27;20048;-69
2022/06/22 07:08:18;;;;;;;3.80;1.10;;;;;;;;;;5126871;27;20074;-69
2022/06/22 07:10:55;;;;;;;3.22;1.38;;;;;;;;;;5125741;27;20572;-68
2022/06/22 07:13:26;;;;;;;4.82;1.50;;;;;;;;;;5124406;27;20051;-68
2022/06/22 07:15:55;;;;;;;2.88;1.15;;;;;;;;;;5124595;27;20624;-68
2022/06/22 07:18:22;;;;;;;3.13;1.10;;;;;;;;;;5125177;27;20105;-68
2022/06/22 07:20:52;;;;;;;3.83;1.38;;;;;;;;;;5105538;27;20035;-67
2022/06/22 07:23:51;;;;;;;2.90;1.10;;;;;;;;;;5126019;27;20154;-67
2022/06/22 07:26:37;;;;;;;3.95;1.20;;;;;;;;;;5075462;27;20672;-67
2022/06/22 07:29:27;;;;;;;2.80;1.00;;;;;;;;;;5054313;27;20066;-68
2022/06/22 07:32:15;;;;;;;5.68;1.30;;;;;;;;;;5087353;27;20144;-68
2022/06/22 07:34:54;;;;;;;3.50;1.10;;;;;;;;;;5125128;27;20047;-66
2022/06/22 07:37:27;;;;;;;3.30;1.27;;;;;;;;;;5126316;27;20039;-67
2022/06/22 07:40:00;;;;;;;3.67;1.15;;;;;;;;;;5125565;27;20157;-67
2022/06/22 07:42:27;;;;;;;3.08;1.30;;;;;;;;;;5124202;27;20069;-67
2022/06/22 07:44:54;;;;;;;3.90;1.10;;;;;;;;;;5125462;27;20096;-68
2022/06/22 07:47:33;;;;;;;3.35;1.10;;;;;;;;;;5123935;27;21733;-67
2022/06/22 07:50:11;;;;;;;2.92;1.13;;;;;;;;;;5124937;27;20050;-67
2022/06/22 07:52:42;;;;;;;3.85;1.38;;;;;;;;;;5122184;27;20555;-67
2022/06/22 07:55:20;;;;;;;3.47;1.17;;;;;;;;;;5125926;27;20046;-66
2022/06/22 07:58:06;;;;;;;5.25;1.10;;;;;;;;;;5115294;27;20054;-67
2022/06/22 08:00:34;;;;;;;3.03;1.02;;;;;;;;;;5054609;27;20849;-67
2022/06/22 08:03:06;;;;;;;3.08;1.00;;;;;;;;;;5109613;27;20408;-68
2022/06/22 08:05:35;;;;;;;5.33;1.03;;;;;;;;;;5112433;27;20043;-69
2022/06/22 08:08:16;;;;;;;2.30;0.80;;;;;;;;;;5103520;27;20043;-68
2022/06/22 08:10:51;;;;;;;2.70;1.00;;;;;;;;;;5100957;27;20530;-68
2022/06/22 08:13:38;;;;;;;3.25;1.00;;;;;;;;;;5102601;28;20043;-67
2022/06/22 08:16:17;;;;;;;2.58;0.73;;;;;;;;;;5100846;27;20592;-67
2022/06/22 08:18:44;;;;;;;3.05;1.02;;;;;;;;;;5103727;27;20645;-67
2022/06/22 08:21:15;;;;;;;2.88;0.98;;;;;;;;;;5102399;28;20035;-68
2022/06/22 08:23:42;;;;;;;3.40;0.85;;;;;;;;;;5103998;27;20042;-66
2022/06/22 08:26:11;;;;;;;3.42;1.15;;;;;;;;;;5104957;27;20032;-66
2022/06/22 08:28:39;;;;;;;3.10;0.98;;;;;;;;;;5102826;28;20151;-67
2022/06/22 08:31:05;;;;;;;3.30;1.00;;;;;;;;;;5083844;28;20039;-68
2022/06/22 08:33:43;;;;;;;2.90;1.00;;;;;;;;;;5103692;27;20062;-67
2022/06/22 08:36:13;;;;;;;3.05;1.00;;;;;;;;;;5103559;28;20043;-67
2022/06/22 08:38:58;;;;;;;3.20;1.00;;;;;;;;;;5102810;27;20636;-67
2022/06/22 08:41:34;;;;;;;2.80;0.80;;;;;;;;;;5101093;28;20039;-67
2022/06/22 08:44:19;;;;;;;3.08;0.82;;;;;;;;;;5101943;28;20041;-68
2022/06/22 08:46:46;;;;;;;5.28;1.10;;;;;;;;;;5120536;27;20040;-67
2022/06/22 08:49:25;;;;;;;3.78;1.00;;;;;;;;;;5103562;27;20074;-67
2022/06/22 08:52:00;;;;;;;2.58;0.80;;;;;;;;;;5103781;27;20150;-67
2022/06/22 08:54:27;;;;;;;2.35;0.80;;;;;;;;;;5103878;27;20043;-66
2022/06/22 08:57:05;;;;;;;3.00;0.93;;;;;;;;;;5105420;28;20599;-67
2022/06/22 08:59:39;;;;;;;4.50;0.93;;;;;;;;;;5103231;27;20031;-66
2022/06/22 09:02:09;;;;;;;3.22;0.80;;;;;;;;;;5104303;27;20039;-67
2022/06/22 09:04:38;;;;;;;2.15;0.63;;;;;;;;;;5102603;28;20046;-65
2022/06/22 09:07:08;;;;;;;2.38;0.70;;;;;;;;;;5108480;27;20039;-66
2022/06/22 09:09:37;;;;;;;4.10;0.90;;;;;;;;;;5105177;27;20119;-66
2022/06/22 09:12:13;;;;;;;2.55;0.82;;;;;;;;;;5107766;27;20526;-66
2022/06/22 09:15:15;;;;;;;2.40;0.88;;;;;;;;;;5106941;27;20043;-66
2022/06/22 09:18:00;;;;;;;3.78;0.80;;;;;;;;;;5020971;28;20041;-67
2022/06/22 09:20:33;;;;;;;2.20;0.70;;;;;;;;;;5101134;27;20897;-67
2022/06/22 09:23:04;;;;;;;3.50;0.95;;;;;;;;;;5109606;27;20047;-67
2022/06/22 09:25:36;;;;;;;2.58;0.80;;;;;;;;;;5108072;27;20072;-67
2022/06/22 09:28:09;;;;;;;1.98;0.70;;;;;;;;;;5107407;27;20062;-69
2022/06/22 09:30:36;;;;;;;1.70;0.65;;;;;;;;;;5107769;27;20948;-68
2022/06/22 09:33:12;;;;;;;1.88;0.50;;;;;;;;;;5106283;27;20055;-68
2022/06/22 09:35:49;;;;;;;2.22;0.57;;;;;;;;;;5108108;27;20067;-67
2022/06/22 09:38:34;;;;;;;1.88;0.50;;;;;;;;;;5109600;27;20035;-66
2022/06/22 09:41:01;;;;;;;1.52;0.50;;;;;;;;;;5126063;27;20042;-67
2022/06/22 09:43:33;;;;;;;2.25;0.50;;;;;;;;;;5126005;27;20037;-66
2022/06/22 09:46:08;;;;;;;1.98;0.50;;;;;;;;;;5128778;27;20035;-66
2022/06/22 09:48:35;;;;;;;1.58;0.50;;;;;;;;;;5126578;27;20171;-66
2022/06/22 09:51:20;;;;;;;2.85;0.52;;;;;;;;;;5128487;27;20023;-66
2022/06/22 09:53:59;;;;;;;2.80;0.60;;;;;;;;;;5106506;27;20043;-66
2022/06/22 09:57:03;;;;;;;1.23;0.45;;;;;;;;;;5106237;27;20067;-66
2022/06/22 09:59:33;;;;;;;1.08;0.40;;;;;;;;;;5023309;28;20809;-66
2022/06/22 10:02:18;;;;;;;2.35;0.60;;;;;;;;;;5023397;28;20053;-67
2022/06/22 10:04:44;;;;;;;1.77;0.52;;;;;;;;;;5067485;27;20039;-67
2022/06/22 10:07:21;;;;;;;1.98;0.60;;;;;;;;;;5108671;27;20110;-65
2022/06/22 10:10:06;;;;;;;1.35;0.43;;;;;;;;;;5106973;27;20046;-67
2022/06/22 10:12:53;;;;;;;1.45;0.50;;;;;;;;;;5104192;27;20050;-66
2022/06/22 10:15:19;;;;;;;1.85;0.60;;;;;;;;;;5105073;27;20067;-67
2022/06/22 10:17:57;;;;;;;1.92;0.50;;;;;;;;;;5105437;27;20467;-66
2022/06/22 10:20:35;;;;;;;1.50;0.50;;;;;;;;;;5105358;27;20039;-67
2022/06/22 10:23:20;;;;;;;1.85;0.50;;;;;;;;;;5115157;27;20035;-67
2022/06/22 10:26:00;;;;;;;1.60;0.52;;;;;;;;;;5105339;27;20050;-66
2022/06/22 10:28:40;;;;;;;1.75;0.50;;;;;;;;;;5105704;27;20537;-67
2022/06/22 10:31:25;;;;;;;2.40;0.60;;;;;;;;;;5102404;27;20037;-67
2022/06/22 10:33:58;;;;;;;1.48;0.50;;;;;;;;;;5105353;27;20043;-67
2022/06/22 10:36:51;;;;;;;1.95;0.47;;;;;;;;;;5105920;27;20387;-67
2022/06/22 10:39:21;;;;;;;1.45;0.50;;;;;;;;;;5105548;27;20048;-67
2022/06/22 10:47:52;;;;;;;1.13;0.40;;;;;;;;;;5104261;27;20096;-67
2022/06/22 10:50:25;;;;;;;2.55;0.65;;;;;;;;;;5103975;27;20545;-67
2022/06/22 10:53:07;;;;;;;2.58;0.68;;;;;;;;;;5102479;27;20055;-68
2022/06/22 10:55:53;;;;;;;2.38;0.60;;;;;;;;;;5104643;27;20560;-68
2022/06/22 10:58:19;;;;;;;2.42;0.60;;;;;;;;;;5105544;27;20063;-68
2022/06/22 11:00:53;;;;;;;3.60;0.68;;;;;;;;;;5101828;27;20035;-68
2022/06/22 11:03:29;;;;;;;2.00;0.70;;;;;;;;;;5103384;27;20035;-68
2022/06/22 11:06:14;;;;;;;2.10;0.50;;;;;;;;;;5103823;27;20028;-68
2022/06/22 11:08:41;;;;;;;1.58;0.50;;;;;;;;;;5113164;27;20980;-68
2022/06/22 11:11:13;;;;;;;1.52;0.55;;;;;;;;;;5102263;27;20038;-68
2022/06/22 11:13:43;;;;;;;1.85;0.60;;;;;;;;;;5103686;27;20399;-68
2022/06/22 11:16:35;;;;;;;1.85;0.50;;;;;;;;;;5105471;27;20043;-68
2022/06/22 11:19:08;;;;;;;2.30;0.60;;;;;;;;;;5079821;27;20051;-68
2022/06/22 11:21:51;;;;;;;2.50;0.60;;;;;;;;;;5108464;27;20063;-66
2022/06/22 11:24:36;;;;;;;1.88;0.57;;;;;;;;;;5099004;27;20035;-67
2022/06/22 11:33:26;;;;;;;2.67;0.50;;;;;;;;;;5126147;27;20108;-67
2022/06/22 11:36:02;;;;;;;1.75;0.52;;;;;;;;;;5117371;27;20049;-68
2022/06/22 11:38:49;;;;;;;1.75;0.55;;;;;;;;;;5124286;27;20078;-68
2022/06/22 11:41:34;;;;;;;2.83;0.52;;;;;;;;;;5122969;27;20364;-68
2022/06/22 11:44:10;;;;;;;1.42;0.45;;;;;;;;;;5118024;27;20042;-68
2022/06/22 11:46:39;;;;;;;2.38;0.50;;;;;;;;;;5123545;27;20607;-67
2022/06/22 11:49:05;;;;;;;1.63;0.60;;;;;;;;;;5124841;27;20043;-68
2022/06/22 11:51:50;;;;;;;1.58;0.52;;;;;;;;;;5122500;27;20051;-69
2022/06/22 11:54:37;;;;;;;2.72;0.63;;;;;;;;;;5124637;27;20070;-69
2022/06/22 11:57:05;;;;;;;2.78;0.60;;;;;;;;;;5079793;28;20071;-68
2022/06/22 11:59:32;;;;;;;2.28;0.50;;;;;;;;;;5091317;28;20067;-69
2022/06/22 12:02:11;;;;;;;1.65;0.50;;;;;;;;;;5089493;28;20040;-68
2022/06/22 12:04:55;;;;;;;2.60;0.50;;;;;;;;;;5085222;28;20044;-68
2022/06/22 12:07:25;;;;;;;4.25;0.60;;;;;;;;;;5087777;28;20063;-68
2022/06/22 12:09:59;;;;;;;3.15;0.65;;;;;;;;;;5090407;28;20793;-69
2022/06/22 12:12:26;;;;;;;4.47;0.60;;;;;;;;;;5090011;28;20052;-67
2022/06/22 12:15:19;;;;;;;7.03;0.80;;;;;;;;;;5091038;28;20044;-68
2022/06/22 12:17:48;;;;;;;2.72;0.60;;;;;;;;;;5052964;28;20051;-68
2022/06/22 12:20:21;;;;;;;3.10;0.70;;;;;;;;;;5088243;28;20598;-67
2022/06/22 12:22:51;;;;;;;5.47;0.60;;;;;;;;;;5122512;27;20831;-68
2022/06/22 12:25:36;;;;;;;4.25;0.77;;;;;;;;;;5123531;27;20047;-68
2022/06/22 12:28:21;;;;;;;4.90;0.88;;;;;;;;;;5111699;27;20044;-69
2022/06/22 12:30:50;;;;;;;2.50;0.90;;;;;;;;;;5111188;27;20054;-67
2022/06/22 12:33:30;;;;;;;5.93;0.98;;;;;;;;;;5104240;27;20087;-69
2022/06/22 12:36:00;;;;;;;2.85;0.85;;;;;;;;;;5106111;27;20043;-67
2022/06/22 12:38:27;;;;;;;2.22;0.80;;;;;;;;;;5121838;27;20035;-67
2022/06/22 12:41:05;;;;;;;2.88;0.95;;;;;;;;;;5107626;27;20035;-68
2022/06/22 12:43:44;;;;;;;6.00;1.05;;;;;;;;;;5124543;27;20038;-68
2022/06/22 12:46:14;;;;;;;5.90;0.80;;;;;;;;;;5127302;27;21710;-66
2022/06/22 12:48:59;;;;;;;5.47;0.90;;;;;;;;;;5128457;27;20131;-68
2022/06/22 12:51:33;;;;;;;3.85;1.13;;;;;;;;;;5126706;27;20092;-68
2022/06/22 12:54:08;;;;;;;5.22;0.95;;;;;;;;;;5129561;27;20042;-68
2022/06/22 12:56:37;;;;;;;9.88;1.10;;;;;;;;;;5127478;27;20039;-68
2022/06/22 12:59:04;;;;;;;3.08;0.93;;;;;;;;;;5131008;27;20498;-67
2022/06/22 13:01:31;;;;;;;3.05;0.90;;;;;;;;;;5129367;27;20043;-67
2022/06/22 13:04:02;;;;;;;5.43;1.00;;;;;;;;;;5111386;27;20068;-67
2022/06/22 13:06:30;;;;;;;5.72;1.17;;;;;;;;;;5126861;27;20467;-67
2022/06/22 13:08:57;;;;;;;3.75;1.00;;;;;;;;;;5110216;27;20058;-67
2022/06/22 13:11:25;;;;;;;6.43;1.10;;;;;;;;;;5128508;27;20047;-68
2022/06/22 13:13:57;;;;;;;4.28;1.17;;;;;;;;;;5130444;27;20039;-68
2022/06/22 13:16:33;;;;;;;4.25;0.90;;;;;;;;;;5128934;27;20035;-69
2022/06/22 13:19:02;;;;;;;3.30;1.00;;;;;;;;;;5128714;27;20071;-69
2022/06/22 13:21:35;;;;;;;2.15;0.65;;;;;;;;;;5127414;27;20059;-69
2022/06/22 13:24:20;;;;;;;3.22;0.93;;;;;;;;;;5128525;27;20083;-67
2022/06/22 13:26:55;;;;;;;4.30;0.88;;;;;;;;;;5117486;27;20044;-67
2022/06/22 13:29:33;;;;;;;3.33;0.80;;;;;;;;;;5108976;27;21359;-65
2022/06/22 13:32:01;;;;;;;3.33;0.68;;;;;;;;;;5113316;27;20057;-66
2022/06/22 13:34:30;;;;;;;3.42;0.80;;;;;;;;;;5110696;27;20035;-66
2022/06/22 13:37:06;;;;;;;2.58;0.80;;;;;;;;;;5111212;27;20093;-66
2022/06/22 13:39:38;;;;;;;3.55;1.00;;;;;;;;;;5110031;27;20180;-66
2022/06/22 13:42:27;;;;;;;2.80;0.88;;;;;;;;;;5111808;27;20039;-67
2022/06/22 13:45:14;;;;;;;4.10;0.70;;;;;;;;;;5117833;27;20213;-65
2022/06/22 13:47:59;;;;;;;4.45;1.00;;;;;;;;;;5107337;27;20039;-68
2022/06/22 13:50:30;;;;;;;3.35;0.60;;;;;;;;;;5108945;27;20028;-67
2022/06/22 13:52:58;;;;;;;2.28;0.70;;;;;;;;;;5106519;27;20047;-67
2022/06/22 13:55:25;;;;;;;2.70;0.70;;;;;;;;;;5106082;27;20096;-67
2022/06/22 13:58:07;;;;;;;2.88;0.52;;;;;;;;;;5106975;27;20035;-67
2022/06/22 14:00:44;;;;;;;6.68;0.90;;;;;;;;;;5103156;27;20130;-67
2022/06/22 14:03:37;;;;;;;4.00;0.75;;;;;;;;;;5105266;27;20031;-69
2022/06/22 14:06:23;;;;;;;3.57;0.80;;;;;;;;;;5101801;27;20032;-67
2022/06/22 14:09:08;;;;;;;3.72;0.55;;;;;;;;;;5104588;27;20276;-67
2022/06/22 14:11:53;;;;;;;2.17;0.70;;;;;;;;;;5113321;27;20574;-67
2022/06/22 14:14:25;;;;;;;2.28;0.70;;;;;;;;;;5104023;27;20122;-67
2022/06/22 14:17:04;;;;;;;1.45;0.47;;;;;;;;;;5111127;27;20088;-67
2022/06/22 14:19:35;;;;;;;2.67;0.77;;;;;;;;;;5103431;27;20048;-67
2022/06/22 14:22:03;;;;;;;3.05;1.02;;;;;;;;;;5106492;27;20077;-67
2022/06/22 14:24:33;;;;;;;3.20;1.08;;;;;;;;;;5104549;27;20039;-69
2022/06/22 14:27:20;;;;;;;3.03;0.70;;;;;;;;;;5107650;27;20046;-68
2022/06/22 14:30:00;;;;;;;3.85;0.75;;;;;;;;;;5104448;27;20066;-68
2022/06/22 14:32:45;;;;;;;2.92;0.88;;;;;;;;;;5106799;27;20133;-67
2022/06/22 14:35:14;;;;;;;2.92;0.90;;;;;;;;;;5110096;27;20031;-69
2022/06/22 14:37:50;;;;;;;4.38;0.85;;;;;;;;;;5117083;27;20130;-69
2022/06/22 14:40:16;;;;;;;7.07;0.90;;;;;;;;;;5111097;27;20086;-67
2022/06/22 14:42:50;;;;;;;6.28;1.05;;;;;;;;;;5107352;27;20035;-67
2022/06/22 14:45:19;;;;;;;2.33;0.63;;;;;;;;;;5107458;27;20062;-67
2022/06/22 14:48:03;;;;;;;5.30;0.80;;;;;;;;;;5114294;27;20043;-68
2022/06/22 14:50:39;;;;;;;1.73;0.52;;;;;;;;;;5105033;27;20130;-68
2022/06/22 14:53:11;;;;;;;5.07;0.77;;;;;;;;;;5107237;27;20051;-66
2022/06/22 14:55:57;;;;;;;2.85;0.70;;;;;;;;;;5120245;27;20119;-67
2022/06/22 14:58:35;;;;;;;2.55;0.77;;;;;;;;;;5104891;27;20046;-68
2022/06/22 15:01:02;;;;;;;2.60;0.50;;;;;;;;;;5116787;27;20043;-68
2022/06/22 15:03:39;;;;;;;2.60;0.60;;;;;;;;;;5105982;27;20126;-67
2022/06/22 15:06:08;;;;;;;3.38;0.60;;;;;;;;;;5104968;27;20078;-68
2022/06/22 15:08:47;;;;;;;2.83;0.70;;;;;;;;;;5104275;27;20054;-67
2022/06/22 15:14:19;;;;;;;3.20;0.70;;;;;;;;;;5108323;27;20096;-68
2022/06/22 15:16:49;;;;;;;3.05;1.00;;;;;;;;;;5116645;27;20114;-69
2022/06/22 15:19:23;;;;;;;6.60;1.00;;;;;;;;;;5126113;27;20110;-69
2022/06/22 15:21:53;;;;;;;6.45;1.00;;;;;;;;;;5105082;27;20032;-67
2022/06/22 15:24:22;;;;;;;3.53;0.95;;;;;;;;;;5104106;27;20035;-69
2022/06/22 15:26:52;;;;;;;11.18;2.13;;;;;;;;;;5116509;27;20076;-69
2022/06/22 15:29:37;;;;;;;9.45;1.58;;;;;;;;;;5123752;27;20813;-68
2022/06/22 15:32:13;;;;;;;7.78;1.50;;;;;;;;;;5118915;27;20537;-67
2022/06/22 15:34:48;;;;;;;9.70;1.48;;;;;;;;;;5127270;27;20046;-67
2022/06/22 15:37:16;;;;;;;8.20;1.30;;;;;;;;;;5125807;27;20046;-67
2022/06/22 15:40:01;;;;;;;5.90;1.60;;;;;;;;;;5123423;27;21629;-67
2022/06/22 15:42:31;;;;;;;5.00;1.40;;;;;;;;;;5124908;27;20114;-68
2022/06/22 15:45:01;;;;;;;4.65;1.60;;;;;;;;;;5125947;27;20039;-68
2022/06/22 15:47:37;;;;;;;5.63;1.05;;;;;;;;;;5127121;27;20415;-68
2022/06/22 15:50:22;;;;;;;5.63;1.20;;;;;;;;;;5128119;27;20047;-68
2022/06/22 15:53:02;;;;;;;4.95;1.23;;;;;;;;;;5107969;27;20051;-68